Porto Grande, Brazil
Current Conditions -  °F | °C
As of 2:00 PM on Thursday 27 Nov 2014 (Local Time) from SBMQ Reporting Station
Scattered Clouds Scattered Clouds  
Wind Chill: 95°   Ceiling: Unl
Heat Index: 105°   Visibility: 6mi
Dew Point: 73°   Wind: 23mph
Humidity: 49%   Direction: 80°E
Pressure: 29.83"   Gusts: NA
Location:  0.71°N, 51.41°W
Report Text: SBMQ 271700Z 08020KT 9999 SCT023 35/23 Q1010
Loading
Personal Weather Stations






























Interactive Weather Map New forecast layout! Learn more

10-Day Weather Forecast

Advertisements
Track Severe Weather on mobile